Time;durP1;ratioP1;P1;durP2;ratioP2;P2;SDS_P1;SDS_P2;PMS_P1;PMS_P2;Temp;Humidity;BMP_temperature;BMP_pressure;BME280_temperature;BME280_humidity;BME280_pressure;Samples;Min_cycle;Max_cycle;Signal;HPM_P1;HPM_P2
2020/12/14 00:00:34;;;;;;;4.17;2.90;;;;;;;5.13;100.00;97864.78;5050852;28;20217;-74
2020/12/14 00:03:01;;;;;;;10.70;3.50;;;;;;;5.19;100.00;97853.50;5053678;28;20211;-73
2020/12/14 00:05:28;;;;;;;6.00;3.53;;;;;;;5.17;100.00;97852.84;5044348;28;20214;-73
2020/12/14 00:07:55;;;;;;;5.93;3.83;;;;;;;5.10;100.00;97843.97;5055867;28;20214;-75
2020/12/14 00:10:22;;;;;;;7.60;4.00;;;;;;;5.05;100.00;97827.78;5062244;28;20693;-73
2020/12/14 00:12:49;;;;;;;8.13;4.10;;;;;;;4.96;100.00;97817.38;5044137;28;20234;-73
2020/12/14 00:15:16;;;;;;;5.73;3.50;;;;;;;4.94;100.00;97809.66;5050760;28;20210;-73
2020/12/14 00:17:43;;;;;;;7.83;4.53;;;;;;;4.88;100.00;97801.56;5051276;28;20202;-73
2020/12/14 00:20:10;;;;;;;6.30;4.30;;;;;;;4.83;100.00;97802.06;5040775;28;20226;-73
2020/12/14 00:22:37;;;;;;;6.20;3.80;;;;;;;4.76;100.00;97787.06;5042077;28;20214;-73
2020/12/14 00:25:04;;;;;;;7.23;3.60;;;;;;;4.73;100.00;97793.50;5053987;28;20207;-74
2020/12/14 00:27:31;;;;;;;6.23;3.60;;;;;;;4.72;100.00;97781.28;5046266;28;20672;-74
2020/12/14 00:29:58;;;;;;;6.50;3.40;;;;;;;4.68;100.00;97790.53;5055303;28;20869;-75
2020/12/14 00:32:25;;;;;;;6.23;3.77;;;;;;;4.69;100.00;97779.00;5050025;28;20218;-73
2020/12/14 00:34:53;;;;;;;7.83;4.10;;;;;;;4.67;100.00;97785.44;5044537;28;20216;-73
2020/12/14 00:37:20;;;;;;;8.63;4.23;;;;;;;4.66;100.00;97784.63;5056135;28;20211;-74
2020/12/14 00:39:47;;;;;;;6.77;4.30;;;;;;;4.63;100.00;97786.78;5045484;28;20233;-72
2020/12/14 00:42:14;;;;;;;7.80;4.20;;;;;;;4.68;100.00;97792.38;5055345;28;20213;-74
2020/12/14 00:44:41;;;;;;;7.97;3.87;;;;;;;4.61;100.00;97800.16;5053494;28;20206;-74
2020/12/14 00:47:07;;;;;;;6.67;4.33;;;;;;;4.74;100.00;97804.91;5046869;28;20207;-74
2020/12/14 00:49:35;;;;;;;5.87;3.60;;;;;;;4.75;100.00;97823.25;5046598;28;20225;-74
2020/12/14 00:52:04;;;;;;;6.13;3.57;;;;;;;4.79;100.00;97821.09;5056728;28;20561;-74
2020/12/14 00:54:31;;;;;;;4.97;3.30;;;;;;;4.70;100.00;97836.16;5044672;28;20736;-74
2020/12/14 00:56:58;;;;;;;7.10;3.67;;;;;;;4.74;100.00;97850.69;5056857;28;20204;-74
2020/12/14 00:59:25;;;;;;;8.67;4.10;;;;;;;4.71;100.00;97850.16;5051935;28;20253;-74
2020/12/14 01:01:52;;;;;;;5.97;3.43;;;;;;;4.74;100.00;97852.50;5054729;28;20207;-74
2020/12/14 01:04:19;;;;;;;8.33;3.93;;;;;;;4.71;100.00;97850.16;5045443;28;20207;-74
2020/12/14 01:06:45;;;;;;;7.27;4.37;;;;;;;4.76;100.00;97848.69;5049071;28;20211;-74
2020/12/14 01:09:13;;;;;;;5.87;3.87;;;;;;;4.69;100.00;97855.66;5046933;28;20224;-74
2020/12/14 01:11:40;;;;;;;6.03;3.97;;;;;;;4.64;100.00;97849.19;5043645;28;20206;-74
2020/12/14 01:14:07;;;;;;;6.33;3.60;;;;;;;4.69;100.00;97838.97;5059634;28;20209;-74
2020/12/14 01:16:34;;;;;;;8.20;4.50;;;;;;;4.58;100.00;97848.03;5049393;28;20205;-74
2020/12/14 01:19:00;;;;;;;7.20;4.13;;;;;;;4.59;100.00;97848.88;5055796;28;20243;-74
2020/12/14 01:21:27;;;;;;;7.27;4.10;;;;;;;4.60;100.00;97850.53;5048090;28;20202;-74
2020/12/14 01:23:54;;;;;;;9.27;4.47;;;;;;;4.51;100.00;97840.94;5044971;28;20207;-73
2020/12/14 01:26:21;;;;;;;7.93;4.37;;;;;;;4.44;100.00;97829.41;5039201;28;20206;-73
2020/12/14 01:28:48;;;;;;;5.70;3.87;;;;;;;4.50;100.00;97829.56;5046048;28;20237;-73
2020/12/14 01:31:15;;;;;;;5.33;3.63;;;;;;;4.45;100.00;97825.78;5041659;28;20208;-74
2020/12/14 01:33:42;;;;;;;6.53;3.67;;;;;;;4.43;100.00;97810.09;5056139;28;20259;-73
2020/12/14 01:36:09;;;;;;;7.87;4.17;;;;;;;4.40;100.00;97815.72;5051811;28;20294;-74
2020/12/14 01:38:36;;;;;;;5.27;3.80;;;;;;;4.40;100.00;97825.44;5049404;28;20222;-74
2020/12/14 01:41:02;;;;;;;6.40;3.83;;;;;;;4.39;100.00;97821.16;5048051;28;20215;-74
2020/12/14 01:43:30;;;;;;;7.53;4.00;;;;;;;4.42;100.00;97824.28;5041632;28;20205;-74
2020/12/14 01:45:57;;;;;;;7.33;3.90;;;;;;;4.42;100.00;97818.19;5053993;28;20214;-74
2020/12/14 01:48:25;;;;;;;17.60;6.20;;;;;;;4.57;100.00;97817.34;5058440;28;20225;-74
2020/12/14 01:50:52;;;;;;;7.67;3.53;;;;;;;4.62;100.00;97820.28;5043621;28;20689;-74
2020/12/14 01:53:20;;;;;;;8.03;3.80;;;;;;;4.67;100.00;97827.75;5053796;28;20593;-74
2020/12/14 01:55:48;;;;;;;7.47;3.90;;;;;;;4.64;100.00;97825.41;5039640;28;20214;-74
2020/12/14 01:58:15;;;;;;;6.97;3.40;;;;;;;4.71;100.00;97829.88;5062469;28;20588;-74
2020/12/14 02:00:42;;;;;;;7.60;3.80;;;;;;;4.82;100.00;97832.16;5039668;28;20678;-74
2020/12/14 02:03:09;;;;;;;7.57;4.50;;;;;;;4.79;100.00;97834.31;5052449;28;20202;-74
2020/12/14 02:05:36;;;;;;;8.17;3.90;;;;;;;4.84;100.00;97838.09;5039370;28;20211;-74
2020/12/14 02:08:05;;;;;;;6.77;4.50;;;;;;;4.84;100.00;97824.06;5045787;28;20205;-74
2020/12/14 02:10:32;;;;;;;5.97;3.70;;;;;;;4.82;100.00;97821.56;5037857;28;20233;-74
2020/12/14 02:12:58;;;;;;;6.97;4.00;;;;;;;4.72;100.00;97813.00;5049567;28;20696;-74
2020/12/14 02:15:25;;;;;;;7.67;4.63;;;;;;;4.75;100.00;97810.03;5038074;28;20210;-74
2020/12/14 02:17:53;;;;;;;7.93;4.50;;;;;;;4.69;100.00;97810.72;5050348;28;20226;-74
2020/12/14 02:20:20;;;;;;;7.60;4.47;;;;;;;4.39;100.00;97818.53;5046530;28;20562;-74
2020/12/14 02:22:46;;;;;;;5.50;3.77;;;;;;;4.66;100.00;97813.69;5039418;28;20214;-74
2020/12/14 02:25:14;;;;;;;6.07;3.80;;;;;;;4.65;100.00;97817.34;5049342;28;20202;-74
2020/12/14 02:27:42;;;;;;;9.20;4.13;;;;;;;4.76;100.00;97814.31;5048468;28;20210;-74
2020/12/14 02:30:10;;;;;;;7.00;4.00;;;;;;;4.81;100.00;97812.00;5051733;28;20302;-74
2020/12/14 02:32:37;;;;;;;7.30;4.37;;;;;;;4.68;100.00;97806.41;5051486;28;20775;-74
2020/12/14 02:35:04;;;;;;;7.37;3.90;;;;;;;4.73;100.00;97801.44;5046774;28;20684;-74
2020/12/14 02:37:32;;;;;;;7.93;4.10;;;;;;;4.71;100.00;97797.31;5050361;28;20202;-74
2020/12/14 02:39:59;;;;;;;6.97;4.13;;;;;;;4.61;100.00;97801.97;5048087;28;20682;-74
2020/12/14 02:42:26;;;;;;;8.63;4.23;;;;;;;4.64;100.00;97804.28;5055720;28;20195;-74
2020/12/14 02:44:53;;;;;;;6.60;4.10;;;;;;;4.73;100.00;97792.69;5050058;28;20676;-74
2020/12/14 02:47:20;;;;;;;6.97;3.60;;;;;;;4.70;100.00;97803.59;5045076;28;20198;-74
2020/12/14 02:49:47;;;;;;;7.23;3.77;;;;;;;4.73;100.00;97797.97;5043983;28;20231;-74
2020/12/14 02:52:14;;;;;;;9.97;4.27;;;;;;;4.77;100.00;97789.53;5050692;28;20202;-72
2020/12/14 02:54:42;;;;;;;6.97;4.33;;;;;;;4.93;100.00;97786.03;5042895;28;20202;-74
2020/12/14 02:57:10;;;;;;;10.70;4.43;;;;;;;4.87;100.00;97784.06;5046579;28;20212;-74
2020/12/14 02:59:37;;;;;;;7.50;4.27;;;;;;;4.71;100.00;97784.94;5040580;28;20323;-74
2020/12/14 03:02:04;;;;;;;7.63;4.27;;;;;;;4.66;100.00;97768.75;5054520;28;20215;-74
2020/12/14 03:04:31;;;;;;;6.77;4.03;;;;;;;4.68;100.00;97764.13;5046029;28;20675;-74
2020/12/14 03:06:58;;;;;;;9.43;4.20;;;;;;;4.56;100.00;97762.00;5049320;28;20213;-74
2020/12/14 03:09:25;;;;;;;6.77;3.90;;;;;;;4.54;100.00;97759.56;5044034;28;20277;-74
2020/12/14 03:11:52;;;;;;;6.43;3.90;;;;;;;4.67;100.00;97757.19;5054665;28;20209;-74
2020/12/14 03:14:19;;;;;;;7.17;4.47;;;;;;;4.67;100.00;97754.53;5046048;28;20224;-74
2020/12/14 03:16:47;;;;;;;9.67;4.03;;;;;;;4.75;100.00;97748.41;5048534;28;20206;-72
2020/12/14 03:19:14;;;;;;;7.63;4.17;;;;;;;4.95;100.00;97744.34;5047152;28;20226;-74
2020/12/14 03:21:41;;;;;;;6.67;3.87;;;;;;;4.88;100.00;97744.22;5053837;28;20209;-74
2020/12/14 03:24:08;;;;;;;6.47;3.73;;;;;;;4.81;100.00;97737.16;5051283;28;20209;-74
2020/12/14 03:26:35;;;;;;;6.43;3.50;;;;;;;4.85;100.00;97741.94;5041239;28;20203;-74
2020/12/14 03:29:02;;;;;;;8.03;4.40;;;;;;;4.84;100.00;97737.66;5052787;28;20232;-74
2020/12/14 03:31:29;;;;;;;9.53;4.20;;;;;;;4.82;100.00;97741.47;5045457;28;20574;-74
2020/12/14 03:33:58;;;;;;;6.77;3.97;;;;;;;4.85;100.00;97743.75;5050217;28;20242;-74
2020/12/14 03:36:25;;;;;;;5.13;3.17;;;;;;;4.69;100.00;97742.00;5046810;28;20210;-74
2020/12/14 03:38:54;;;;;;;7.57;4.50;;;;;;;4.88;100.00;97746.06;5045688;28;20232;-73
2020/12/14 03:41:21;;;;;;;8.67;4.40;;;;;;;4.92;100.00;97745.53;5055050;28;20202;-74
2020/12/14 03:43:48;;;;;;;7.07;4.03;;;;;;;4.89;100.00;97748.53;5056509;28;20608;-73
2020/12/14 03:46:16;;;;;;;6.87;3.63;;;;;;;4.79;100.00;97742.63;5047887;28;20198;-74
2020/12/14 03:48:42;;;;;;;8.93;4.00;;;;;;;4.97;100.00;97752.97;5058548;28;20245;-74
2020/12/14 03:51:12;;;;;;;7.53;3.97;;;;;;;5.00;100.00;97763.19;5051549;28;20208;-74
2020/12/14 03:53:39;;;;;;;7.27;4.20;;;;;;;5.01;100.00;97763.00;5051965;28;20223;-74
2020/12/14 03:56:05;;;;;;;6.90;3.77;;;;;;;4.88;100.00;97757.44;5049740;28;20210;-73
2020/12/14 03:58:32;;;;;;;10.93;4.30;;;;;;;4.97;100.00;97756.41;5060965;28;20243;-74
2020/12/14 04:00:59;;;;;;;8.27;4.33;;;;;;;4.98;100.00;97749.31;5052079;28;20213;-73
2020/12/14 04:03:26;;;;;;;9.23;4.83;;;;;;;4.96;100.00;97751.28;5055601;28;20731;-74
2020/12/14 04:05:53;;;;;;;6.37;3.87;;;;;;;4.86;100.00;97748.03;5060613;28;20659;-74
2020/12/14 04:08:21;;;;;;;6.50;4.20;;;;;;;4.86;100.00;97746.22;5047138;28;20223;-73
2020/12/14 04:10:48;;;;;;;7.73;4.30;;;;;;;4.86;100.00;97742.75;5056988;28;20214;-74
2020/12/14 04:13:15;;;;;;;10.80;4.40;;;;;;;5.02;100.00;97751.44;5058561;28;20220;-74
2020/12/14 04:15:42;;;;;;;7.57;3.97;;;;;;;4.92;100.00;97756.09;5050292;28;20679;-74
2020/12/14 04:18:08;;;;;;;7.77;4.03;;;;;;;4.84;100.00;97752.66;5055775;28;20204;-74
2020/12/14 04:20:35;;;;;;;7.87;3.83;;;;;;;4.80;100.00;97757.50;5049546;28;20210;-74
2020/12/14 04:23:02;;;;;;;6.83;3.83;;;;;;;4.73;100.00;97768.91;5054813;28;20213;-73
2020/12/14 04:25:29;;;;;;;7.57;4.37;;;;;;;4.61;100.00;97771.09;5047131;28;20206;-74
2020/12/14 04:27:59;;;;;;;7.60;4.03;;;;;;;4.63;100.00;97769.09;5049073;28;20204;-73
2020/12/14 04:30:26;;;;;;;9.93;4.50;;;;;;;4.63;100.00;97774.38;5052728;28;20205;-73
2020/12/14 04:32:53;;;;;;;7.30;3.93;;;;;;;4.63;100.00;97774.38;5053774;28;20603;-73
2020/12/14 04:35:20;;;;;;;8.70;3.80;;;;;;;4.59;100.00;97773.09;5053409;28;20581;-74
2020/12/14 04:37:48;;;;;;;7.73;3.77;;;;;;;4.58;100.00;97775.88;5045989;28;20214;-74
2020/12/14 04:40:15;;;;;;;7.40;3.77;;;;;;;4.61;100.00;97772.88;5061107;28;20221;-73
2020/12/14 04:42:45;;;;;;;7.00;3.67;;;;;;;4.42;100.00;97778.56;5047176;28;20667;-73
2020/12/14 04:45:13;;;;;;;6.20;3.37;;;;;;;4.46;100.00;97766.66;5046754;28;20197;-73
2020/12/14 04:47:40;;;;;;;7.07;3.73;;;;;;;4.42;100.00;97771.47;5049040;28;20222;-73
2020/12/14 04:50:07;;;;;;;8.53;4.17;;;;;;;4.37;100.00;97771.13;5042586;28;20217;-73
2020/12/14 04:52:35;;;;;;;7.03;4.00;;;;;;;4.32;100.00;97770.00;5046723;28;20229;-73
2020/12/14 04:55:03;;;;;;;6.60;4.10;;;;;;;4.35;100.00;97769.66;5053914;28;20206;-72
2020/12/14 04:57:32;;;;;;;10.73;4.87;;;;;;;4.12;100.00;97772.16;5045596;28;20205;-72
2020/12/14 04:59:59;;;;;;;9.33;4.57;;;;;;;4.06;100.00;97777.31;5055881;28;20700;-74
2020/12/14 05:02:26;;;;;;;7.33;3.77;;;;;;;4.18;100.00;97770.69;5053475;28;20198;-73
2020/12/14 05:04:53;;;;;;;6.03;3.63;;;;;;;4.08;100.00;97777.94;5048945;28;20279;-74
2020/12/14 05:07:37;;;;;;;7.43;3.90;;;;;;;3.99;100.00;97779.78;5056968;28;20237;-73
2020/12/14 05:10:04;;;;;;;6.50;3.60;;;;;;;3.86;100.00;97770.72;5058642;28;20226;-73
2020/12/14 05:12:31;;;;;;;4.83;3.67;;;;;;;3.81;100.00;97770.38;5052999;28;20202;-73
2020/12/14 05:15:01;;;;;;;7.43;3.80;;;;;;;3.84;100.00;97776.16;5047139;28;20207;-74
2020/12/14 05:17:27;;;;;;;9.90;3.90;;;;;;;3.66;100.00;97767.53;5046977;28;20221;-73
2020/12/14 05:19:54;;;;;;;8.73;4.50;;;;;;;3.71;100.00;97770.50;5048250;28;20230;-74
2020/12/14 05:22:21;;;;;;;8.07;3.90;;;;;;;3.59;100.00;97756.00;5062626;28;20201;-74
2020/12/14 05:24:49;;;;;;;6.07;3.47;;;;;;;3.66;100.00;97764.91;5044304;28;20214;-73
2020/12/14 05:27:33;;;;;;;6.77;3.67;;;;;;;3.61;100.00;97761.94;5047833;28;20267;-73
2020/12/14 05:30:02;;;;;;;9.63;4.20;;;;;;;3.60;100.00;97762.13;5049108;28;20349;-73
2020/12/14 05:32:29;;;;;;;7.77;3.70;;;;;;;3.50;100.00;97764.09;5048838;28;20217;-73
2020/12/14 05:34:56;;;;;;;8.53;4.50;;;;;;;3.50;100.00;97767.53;5046714;28;20198;-74
2020/12/14 05:37:23;;;;;;;9.17;4.70;;;;;;;3.49;100.00;97762.41;5039883;28;20213;-73
2020/12/14 05:39:49;;;;;;;7.57;4.27;;;;;;;3.53;100.00;97767.22;5048346;28;20601;-74
2020/12/14 05:42:17;;;;;;;10.43;4.17;;;;;;;3.58;100.00;97770.19;5039057;28;20655;-73
2020/12/14 05:44:46;;;;;;;8.33;4.10;;;;;;;3.54;100.00;97763.59;5050181;28;20202;-74
2020/12/14 05:47:24;;;;;;;7.97;4.60;;;;;;;3.79;100.00;97767.91;5040879;28;20212;-73
2020/12/14 05:49:51;;;;;;;10.80;4.63;;;;;;;3.81;100.00;97776.47;5058349;28;20229;-74
2020/12/14 05:52:19;;;;;;;10.13;4.63;;;;;;;3.81;100.00;97773.81;5043539;28;20206;-73
2020/12/14 05:54:51;;;;;;;11.57;4.37;;;;;;;3.90;100.00;97772.84;5053384;28;20667;-73
2020/12/14 05:57:29;;;;;;;11.33;5.23;;;;;;;3.54;100.00;97770.66;5050737;28;20240;-71
2020/12/14 05:59:59;;;;;;;12.17;5.37;;;;;;;3.93;100.00;97764.59;5044789;28;20244;-71
2020/12/14 06:02:27;;;;;;;10.93;5.27;;;;;;;3.89;100.00;97781.75;5052386;28;20262;-71
2020/12/14 06:04:57;;;;;;;13.00;5.57;;;;;;;3.94;100.00;97774.16;5047615;28;20206;-72
2020/12/14 06:07:27;;;;;;;10.93;5.67;;;;;;;4.07;100.00;97776.31;5056526;28;20661;-72
2020/12/14 06:10:08;;;;;;;15.03;5.83;;;;;;;4.01;100.00;97775.13;5050609;28;20256;-78
2020/12/14 06:12:37;;;;;;;11.37;5.77;;;;;;;3.98;100.00;97769.38;5051190;28;20721;-84
2020/12/14 06:15:07;;;;;;;12.60;5.67;;;;;;;4.15;100.00;97763.06;5059943;28;20658;-78
2020/12/14 06:17:35;;;;;;;11.83;5.70;;;;;;;4.04;100.00;97766.91;5056800;28;20237;-77
2020/12/14 06:20:20;;;;;;;12.37;6.07;;;;;;;3.88;100.00;97769.56;5044504;28;20234;-80
2020/12/14 06:22:48;;;;;;;12.33;5.63;;;;;;;3.89;100.00;97758.00;5047877;28;20213;-72
2020/12/14 06:25:16;;;;;;;12.47;5.70;;;;;;;3.91;100.00;97758.66;5060881;28;20201;-75
2020/12/14 06:27:43;;;;;;;14.00;6.83;;;;;;;3.89;100.00;97757.16;5063150;28;20201;-76
2020/12/14 06:30:29;;;;;;;10.10;6.13;;;;;;;4.09;100.00;97754.03;5050716;28;20232;-72
2020/12/14 06:33:00;;;;;;;14.70;7.77;;;;;;;4.13;100.00;97750.06;5049813;28;20313;-71
2020/12/14 06:35:44;;;;;;;11.80;5.73;;;;;;;4.27;100.00;97757.28;5060202;28;20291;-71
2020/12/14 06:38:11;;;;;;;14.00;6.47;;;;;;;4.15;100.00;97758.63;5043429;28;20701;-72
2020/12/14 06:40:58;;;;;;;14.83;6.70;;;;;;;4.17;100.00;97761.13;5041869;28;20205;-73
2020/12/14 06:43:31;;;;;;;11.97;6.00;;;;;;;4.17;100.00;97761.91;5044312;28;20256;-71
2020/12/14 06:45:58;;;;;;;12.87;6.40;;;;;;;4.13;100.00;97760.63;5042100;28;20205;-73
2020/12/14 06:48:41;;;;;;;12.80;5.97;;;;;;;4.06;100.00;97766.75;5041564;28;20225;-72
2020/12/14 06:51:09;;;;;;;11.57;6.17;;;;;;;4.00;100.00;97767.38;5046866;28;20201;-73
2020/12/14 06:53:44;;;;;;;14.13;6.83;;;;;;;4.01;100.00;97759.31;5052685;28;20223;-73
2020/12/14 06:56:13;;;;;;;13.33;7.00;;;;;;;4.21;100.00;97768.53;5036528;28;20211;-74
2020/12/14 06:58:42;;;;;;;14.43;6.53;;;;;;;4.34;100.00;97763.56;5057735;28;20241;-70
2020/12/14 07:01:33;;;;;;;12.53;6.07;;;;;;;4.44;100.00;97758.91;5056505;28;20663;-72
2020/12/14 07:04:05;;;;;;;16.27;7.40;;;;;;;4.76;100.00;97768.56;5059430;28;20206;-70
2020/12/14 07:06:32;;;;;;;16.13;6.70;;;;;;;4.67;100.00;97770.41;5072226;28;20532;-74
2020/12/14 07:08:59;;;;;;;15.20;7.20;;;;;;;4.62;100.00;97777.22;5049742;28;20226;-74
2020/12/14 07:11:26;;;;;;;16.33;7.27;;;;;;;4.42;100.00;97768.81;5057041;28;20266;-71
2020/12/14 07:13:53;;;;;;;13.50;7.20;;;;;;;4.51;100.00;97775.72;5058767;28;20240;-73
2020/12/14 07:16:29;;;;;;;14.90;6.80;;;;;;;4.52;100.00;97785.31;5057699;28;20211;-74
2020/12/14 07:18:56;;;;;;;11.90;6.70;;;;;;;4.54;100.00;97778.06;5052288;28;20991;-73
2020/12/14 07:21:24;;;;;;;17.83;7.57;;;;;;;4.47;100.00;97781.53;5060375;28;20256;-72
2020/12/14 07:23:52;;;;;;;13.50;7.00;;;;;;;4.33;100.00;97783.06;5063360;28;20878;-73
2020/12/14 07:26:19;;;;;;;13.53;6.90;;;;;;;4.45;100.00;97786.16;5040140;28;20272;-73
2020/12/14 07:28:48;;;;;;;13.77;7.10;;;;;;;4.41;100.00;97775.09;5059878;28;20229;-77
2020/12/14 07:31:16;;;;;;;17.60;6.77;;;;;;;4.45;100.00;97786.97;5073264;28;20201;-75
2020/12/14 07:33:51;;;;;;;17.17;6.90;;;;;;;4.57;100.00;97788.28;5056396;28;20325;-75
2020/12/14 07:36:18;;;;;;;14.97;6.67;;;;;;;4.37;100.00;97794.91;5054641;28;20267;-79
2020/12/14 07:38:48;;;;;;;14.63;7.17;;;;;;;4.48;100.00;97791.09;5059190;28;20250;-76
2020/12/14 07:41:15;;;;;;;15.87;6.77;;;;;;;4.56;100.00;97786.63;5048499;28;20286;-75
2020/12/14 07:43:47;;;;;;;16.60;7.33;;;;;;;4.59;100.00;97796.03;5063049;28;20612;-80
2020/12/14 07:46:22;;;;;;;15.10;6.77;;;;;;;4.66;100.00;97795.19;5055003;28;20268;-73
2020/12/14 07:48:57;;;;;;;12.50;5.87;;;;;;;4.97;100.00;97798.72;5047845;28;20225;-74
2020/12/14 07:51:24;;;;;;;14.63;6.90;;;;;;;4.87;100.00;97792.81;5066768;28;20210;-79
2020/12/14 07:53:53;;;;;;;15.97;7.63;;;;;;;4.91;100.00;97785.34;5064914;28;20225;-71
2020/12/14 07:56:20;;;;;;;15.03;7.43;;;;;;;5.06;100.00;97784.47;5053215;28;21507;-71
2020/12/14 07:58:48;;;;;;;18.70;7.47;;;;;;;4.84;100.00;97785.22;5061692;28;20234;-73
2020/12/14 08:01:17;;;;;;;16.30;8.23;;;;;;;4.99;100.00;97794.09;5053938;28;20205;-72
2020/12/14 08:03:44;;;;;;;18.03;7.57;;;;;;;4.92;100.00;97801.06;5067609;28;20206;-72
2020/12/14 08:06:12;;;;;;;15.20;7.40;;;;;;;5.18;100.00;97798.97;5056835;28;20210;-73
2020/12/14 08:08:42;;;;;;;17.93;7.33;;;;;;;5.38;100.00;97800.19;5047062;28;20231;-72
2020/12/14 08:11:11;;;;;;;18.33;7.97;;;;;;;5.37;100.00;97793.25;5042227;28;20257;-72
2020/12/14 08:13:38;;;;;;;19.70;9.57;;;;;;;5.52;100.00;97793.31;5050199;28;20225;-72
2020/12/14 08:16:06;;;;;;;15.10;7.13;;;;;;;5.52;100.00;97788.03;5068348;28;20213;-73
2020/12/14 08:18:34;;;;;;;14.97;7.47;;;;;;;5.66;100.00;97793.41;5060549;28;20234;-84
2020/12/14 08:21:01;;;;;;;18.83;7.67;;;;;;;5.64;100.00;97787.44;5069639;28;20209;-74
2020/12/14 08:23:30;;;;;;;17.43;7.83;;;;;;;5.54;100.00;97791.34;5058173;28;20286;-74
2020/12/14 08:25:57;;;;;;;19.27;8.17;;;;;;;5.78;100.00;97786.69;5050247;28;20203;-77
2020/12/14 08:28:29;;;;;;;14.57;7.83;;;;;;;5.79;100.00;97788.34;5054504;28;20260;-73
2020/12/14 08:30:56;;;;;;;19.10;8.30;;;;;;;5.71;100.00;97791.06;5060073;28;20216;-75
2020/12/14 08:33:27;;;;;;;14.37;7.47;;;;;;;5.83;100.00;97787.03;5061573;28;20220;-73
2020/12/14 08:35:55;;;;;;;21.57;8.90;;;;;;;6.16;100.00;97790.25;5062003;28;20568;-74
2020/12/14 08:38:27;;;;;;;17.40;7.70;;;;;;;6.15;100.00;97788.59;5053497;28;20286;-74
2020/12/14 08:40:55;;;;;;;17.23;7.33;;;;;;;6.17;100.00;97790.06;5047471;28;20235;-75
2020/12/14 08:43:23;;;;;;;17.40;7.47;;;;;;;6.09;100.00;97800.72;5049625;28;20206;-74
2020/12/14 08:46:14;;;;;;;17.17;8.30;;;;;;;6.26;100.00;97802.25;5057052;28;20201;-73
2020/12/14 08:48:46;;;;;;;17.33;7.70;;;;;;;6.29;100.00;97809.81;5045240;28;20229;-75
2020/12/14 08:51:14;;;;;;;17.07;8.03;;;;;;;6.18;100.00;97804.97;5046967;28;20226;-75
2020/12/14 08:53:42;;;;;;;13.93;8.40;;;;;;;6.22;100.00;97808.06;5043383;28;20238;-76
2020/12/14 08:56:13;;;;;;;16.47;7.27;;;;;;;6.36;100.00;97807.28;5055643;28;20247;-75
2020/12/14 08:58:50;;;;;;;13.93;7.47;;;;;;;6.44;100.00;97810.69;5056779;28;20232;-75
2020/12/14 09:01:18;;;;;;;14.03;6.73;;;;;;;6.51;100.00;97813.44;5051916;28;20212;-74
2020/12/14 09:03:47;;;;;;;15.80;6.57;;;;;;;6.64;100.00;97817.13;5050831;28;20212;-76
2020/12/14 09:06:24;;;;;;;14.77;8.00;;;;;;;6.19;100.00;97819.03;5049745;28;20207;-75
2020/12/14 09:09:12;;;;;;;16.60;8.03;;;;;;;6.20;100.00;97825.97;5058311;28;20325;-74
2020/12/14 09:11:50;;;;;;;15.83;8.37;;;;;;;6.35;100.00;97827.66;5040861;28;20208;-76
2020/12/14 09:14:19;;;;;;;15.67;7.47;;;;;;;6.52;100.00;97825.69;5049056;28;20223;-77
2020/12/14 09:16:49;;;;;;;16.10;7.47;;;;;;;6.71;100.00;97827.84;5054124;28;20207;-76
2020/12/14 09:19:20;;;;;;;16.93;7.57;;;;;;;7.06;100.00;97827.13;5052028;28;20224;-75
2020/12/14 09:21:47;;;;;;;15.43;6.97;;;;;;;7.29;100.00;97825.16;5051830;28;20210;-74
2020/12/14 09:24:16;;;;;;;14.73;7.43;;;;;;;6.96;100.00;97832.69;5061574;28;20206;-74
2020/12/14 09:26:44;;;;;;;16.20;7.23;;;;;;;6.69;100.00;97828.00;5048879;28;20300;-76
2020/12/14 09:29:11;;;;;;;11.77;6.50;;;;;;;6.76;100.00;97822.81;5047019;28;20225;-72
2020/12/14 09:31:39;;;;;;;14.40;6.60;;;;;;;7.21;100.00;97831.41;5055947;28;20211;-73
2020/12/14 09:34:07;;;;;;;12.30;6.53;;;;;;;7.55;100.00;97830.81;5050715;28;20696;-73
2020/12/14 09:36:34;;;;;;;9.90;5.70;;;;;;;7.72;100.00;97824.28;5047194;28;20208;-73
2020/12/14 09:39:01;;;;;;;11.43;6.13;;;;;;;7.85;100.00;97832.38;5047724;28;20264;-74
2020/12/14 09:41:31;;;;;;;12.70;6.43;;;;;;;7.31;100.00;97831.94;5043355;28;20213;-74
2020/12/14 09:43:59;;;;;;;11.03;6.00;;;;;;;7.41;100.00;97823.72;5045738;28;20213;-74
2020/12/14 09:46:26;;;;;;;13.60;5.80;;;;;;;7.31;100.00;97825.81;5044967;28;20201;-73
2020/12/14 09:48:55;;;;;;;11.20;6.57;;;;;;;7.41;100.00;97826.38;5049894;28;20248;-75
2020/12/14 09:51:22;;;;;;;12.33;6.00;;;;;;;7.55;100.00;97829.00;5049507;28;20204;-77
2020/12/14 09:53:49;;;;;;;11.17;5.97;;;;;;;8.01;100.00;97821.53;5054383;28;20236;-72
2020/12/14 09:56:16;;;;;;;10.27;5.67;;;;;;;7.65;100.00;97823.38;5050943;28;20292;-73
2020/12/14 09:58:43;;;;;;;8.47;5.17;;;;;;;8.01;100.00;97819.69;5050464;28;20239;-73
2020/12/14 10:01:10;;;;;;;9.10;5.53;;;;;;;8.02;100.00;97821.31;5058536;28;20201;-73
2020/12/14 10:03:37;;;;;;;13.17;6.20;;;;;;;7.91;100.00;97824.50;5057511;28;20189;-75
2020/12/14 10:06:04;;;;;;;9.43;5.67;;;;;;;7.85;100.00;97816.44;5067564;28;20211;-73
2020/12/14 10:08:37;;;;;;;8.40;5.20;;;;;;;8.56;100.00;97816.31;5053363;28;20236;-73
2020/12/14 10:11:07;;;;;;;8.27;5.40;;;;;;;8.55;100.00;97814.69;5055788;28;20233;-73
2020/12/14 10:13:35;;;;;;;9.37;5.17;;;;;;;8.38;100.00;97802.69;5044796;28;20288;-74
2020/12/14 10:16:02;;;;;;;8.17;4.87;;;;;;;8.06;100.00;97809.31;5055924;28;20211;-76
2020/12/14 10:18:43;;;;;;;8.37;4.50;;;;;;;8.48;100.00;97805.84;5050314;28;20251;-74
2020/12/14 10:21:10;;;;;;;8.07;4.50;;;;;;;8.36;100.00;97802.88;5051443;28;20212;-74
2020/12/14 10:23:44;;;;;;;9.97;4.83;;;;;;;8.64;100.00;97797.56;5051069;28;20204;-73
2020/12/14 10:26:12;;;;;;;8.40;5.00;;;;;;;8.40;100.00;97804.13;5052886;28;20205;-73
2020/12/14 10:28:45;;;;;;;8.10;4.60;;;;;;;8.38;100.00;97802.69;5041673;28;20853;-78
2020/12/14 10:31:14;;;;;;;9.77;5.00;;;;;;;8.67;100.00;97795.34;5051541;28;20204;-79
2020/12/14 10:33:47;;;;;;;7.03;4.40;;;;;;;9.45;100.00;97806.44;5059382;28;20687;-75
2020/12/14 10:36:19;;;;;;;6.83;4.60;;;;;;;9.31;100.00;97799.41;5065145;28;20202;-76
2020/12/14 10:38:47;;;;;;;7.67;4.60;;;;;;;9.07;100.00;97799.88;5059621;28;20224;-77
2020/12/14 10:41:17;;;;;;;8.67;4.73;;;;;;;9.14;100.00;97800.75;5043648;28;20733;-77
2020/12/14 10:43:44;;;;;;;6.37;4.00;;;;;;;9.74;100.00;97794.66;5056160;28;20291;-79
2020/12/14 10:46:10;;;;;;;9.60;3.83;;;;;;;9.45;100.00;97786.97;5064385;28;20202;-74
2020/12/14 10:48:37;;;;;;;6.20;3.93;;;;;;;9.57;100.00;97785.34;5065147;28;20588;-74
2020/12/14 10:51:04;;;;;;;8.77;4.30;;;;;;;9.30;100.00;97781.78;5055286;28;20206;-75
2020/12/14 10:53:31;;;;;;;8.03;4.47;;;;;;;9.58;100.00;97779.00;5063376;28;20229;-75
2020/12/14 10:56:00;;;;;;;7.40;4.47;;;;;;;9.22;100.00;97778.47;5051910;28;20571;-75
2020/12/14 10:58:26;;;;;;;6.33;4.30;;;;;;;9.28;100.00;97781.16;5045402;28;20663;-76
2020/12/14 11:00:53;;;;;;;5.70;4.00;;;;;;;9.61;100.00;97783.94;5065374;28;20194;-75
2020/12/14 11:03:23;;;;;;;8.37;4.03;;;;;;;9.50;100.00;97777.38;5054148;28;20198;-78
2020/12/14 11:05:52;;;;;;;7.73;4.00;;;;;;;10.02;100.00;97782.00;5045105;28;20208;-73
2020/12/14 11:08:19;;;;;;;5.70;3.73;;;;;;;10.12;99.57;97777.13;5055216;28;20218;-73
2020/12/14 11:10:46;;;;;;;7.87;3.97;;;;;;;9.36;100.00;97772.19;5054612;28;20226;-78
2020/12/14 11:13:33;;;;;;;6.47;3.83;;;;;;;9.22;100.00;97773.97;5048868;28;20643;-79
2020/12/14 11:16:06;;;;;;;5.20;3.40;;;;;;;9.76;100.00;97772.13;5050257;28;20741;-72
2020/12/14 11:18:43;;;;;;;6.33;3.20;;;;;;;9.94;100.00;97766.22;5049790;28;20226;-70
2020/12/14 11:21:10;;;;;;;7.13;3.60;;;;;;;9.74;100.00;97760.03;5041449;28;20574;-73
2020/12/14 11:23:40;;;;;;;4.83;3.47;;;;;;;9.80;100.00;97765.34;5055150;28;20199;-74
2020/12/14 11:26:11;;;;;;;4.27;3.20;;;;;;;9.88;100.00;97757.16;5052383;28;20206;-73
2020/12/14 11:28:42;;;;;;;4.77;3.10;;;;;;;9.94;100.00;97752.88;5049634;28;20654;-71
2020/12/14 11:31:09;;;;;;;5.70;3.43;;;;;;;10.09;100.00;97746.34;5054282;28;20259;-75
2020/12/14 11:33:40;;;;;;;6.17;3.70;;;;;;;10.07;100.00;97754.78;5047315;28;20237;-73
2020/12/14 11:36:15;;;;;;;5.37;3.27;;;;;;;10.60;100.00;97744.69;5050586;28;20225;-73